sensor_id;sensor_type;location;lat;lon;timestamp;pressure;altitude;pressure_sealevel;temperature;humidity
9855;BME280;4966;48.112;9.282;2022-08-21T00:01:57;94932.38;;;14.69;100.00
9855;BME280;4966;48.112;9.282;2022-08-21T00:04:23;94923.09;;;14.74;100.00
9855;BME280;4966;48.112;9.282;2022-08-21T00:06:50;94927.56;;;14.46;100.00
9855;BME280;4966;48.112;9.282;2022-08-21T00:09:15;94929.00;;;14.56;100.00
9855;BME280;4966;48.112;9.282;2022-08-21T00:11:41;94924.97;;;14.70;99.71
9855;BME280;4966;48.112;9.282;2022-08-21T00:14:07;94922.94;;;14.66;99.74
9855;BME280;4966;48.112;9.282;2022-08-21T00:16:34;94925.34;;;14.68;99.74
9855;BME280;4966;48.112;9.282;2022-08-21T00:18:59;94919.13;;;14.71;99.67
9855;BME280;4966;48.112;9.282;2022-08-21T00:21:25;94923.19;;;14.77;99.67
9855;BME280;4966;48.112;9.282;2022-08-21T00:23:51;94920.44;;;14.77;99.21
9855;BME280;4966;48.112;9.282;2022-08-21T00:26:17;94922.22;;;14.70;100.00
9855;BME280;4966;48.112;9.282;2022-08-21T00:28:42;94917.91;;;14.68;100.00
9855;BME280;4966;48.112;9.282;2022-08-21T00:31:08;94916.47;;;14.75;100.00
9855;BME280;4966;48.112;9.282;2022-08-21T00:33:34;94914.94;;;14.42;100.00
9855;BME280;4966;48.112;9.282;2022-08-21T00:36:00;94916.16;;;14.60;100.00
9855;BME280;4966;48.112;9.282;2022-08-21T00:38:26;94912.81;;;14.51;100.00
9855;BME280;4966;48.112;9.282;2022-08-21T00:40:55;94908.38;;;14.62;99.59
9855;BME280;4966;48.112;9.282;2022-08-21T00:43:22;94910.63;;;14.57;99.61
9855;BME280;4966;48.112;9.282;2022-08-21T00:45:48;94903.00;;;14.50;99.28
9855;BME280;4966;48.112;9.282;2022-08-21T00:48:14;94905.84;;;14.38;99.49
9855;BME280;4966;48.112;9.282;2022-08-21T00:50:44;94903.84;;;14.35;98.59
9855;BME280;4966;48.112;9.282;2022-08-21T00:53:12;94903.41;;;14.33;98.60
9855;BME280;4966;48.112;9.282;2022-08-21T00:55:38;94899.63;;;14.21;99.10
9855;BME280;4966;48.112;9.282;2022-08-21T00:58:06;94897.47;;;14.31;96.85
9855;BME280;4966;48.112;9.282;2022-08-21T01:00:36;94890.28;;;14.22;96.24
9855;BME280;4966;48.112;9.282;2022-08-21T01:03:07;94898.50;;;13.91;97.44
9855;BME280;4966;48.112;9.282;2022-08-21T01:05:32;94893.84;;;13.75;97.88
9855;BME280;4966;48.112;9.282;2022-08-21T01:07:58;94891.81;;;13.72;97.56
9855;BME280;4966;48.112;9.282;2022-08-21T01:10:24;94893.56;;;13.65;97.58
9855;BME280;4966;48.112;9.282;2022-08-21T01:12:53;94887.56;;;13.59;98.27
9855;BME280;4966;48.112;9.282;2022-08-21T01:15:21;94887.56;;;13.59;99.03
9855;BME280;4966;48.112;9.282;2022-08-21T01:17:48;94887.41;;;13.68;98.24
9855;BME280;4966;48.112;9.282;2022-08-21T01:20:14;94895.22;;;13.69;97.48
9855;BME280;4966;48.112;9.282;2022-08-21T01:22:41;94889.59;;;13.62;97.65
9855;BME280;4966;48.112;9.282;2022-08-21T01:25:09;94884.28;;;13.69;97.18
9855;BME280;4966;48.112;9.282;2022-08-21T01:27:34;94887.91;;;13.73;97.16
9855;BME280;4966;48.112;9.282;2022-08-21T01:30:22;94889.84;;;13.57;98.32
9855;BME280;4966;48.112;9.282;2022-08-21T01:32:48;94884.94;;;13.63;97.99
9855;BME280;4966;48.112;9.282;2022-08-21T01:35:15;94873.47;;;13.73;97.04
9855;BME280;4966;48.112;9.282;2022-08-21T01:37:42;94869.41;;;13.67;96.58
9855;BME280;4966;48.112;9.282;2022-08-21T01:40:08;94875.50;;;13.60;96.33
9855;BME280;4966;48.112;9.282;2022-08-21T01:42:34;94879.97;;;13.52;95.91
9855;BME280;4966;48.112;9.282;2022-08-21T01:45:00;94879.78;;;13.45;95.93
9855;BME280;4966;48.112;9.282;2022-08-21T01:47:25;94877.06;;;13.29;96.47
9855;BME280;4966;48.112;9.282;2022-08-21T01:49:50;94874.56;;;13.24;96.96
9855;BME280;4966;48.112;9.282;2022-08-21T01:52:16;94874.31;;;13.29;96.76
9855;BME280;4966;48.112;9.282;2022-08-21T01:54:42;94880.91;;;13.28;96.89
9855;BME280;4966;48.112;9.282;2022-08-21T01:57:09;94876.44;;;13.36;97.19
9855;BME280;4966;48.112;9.282;2022-08-21T01:59:35;94877.16;;;13.49;96.50
9855;BME280;4966;48.112;9.282;2022-08-21T02:02:01;94869.41;;;13.51;94.97
9855;BME280;4966;48.112;9.282;2022-08-21T02:04:26;94865.69;;;13.27;96.32
9855;BME280;4966;48.112;9.282;2022-08-21T02:06:52;94855.91;;;13.14;97.33
9855;BME280;4966;48.112;9.282;2022-08-21T02:09:18;94859.81;;;13.13;97.07
9855;BME280;4966;48.112;9.282;2022-08-21T02:11:44;94856.00;;;13.02;97.51
9855;BME280;4966;48.112;9.282;2022-08-21T02:14:12;94857.28;;;12.92;97.46
9855;BME280;4966;48.112;9.282;2022-08-21T02:16:40;94858.25;;;12.84;97.62
9855;BME280;4966;48.112;9.282;2022-08-21T02:19:06;94864.34;;;12.93;96.76
9855;BME280;4966;48.112;9.282;2022-08-21T02:21:32;94856.00;;;13.02;96.72
9855;BME280;4966;48.112;9.282;2022-08-21T02:23:57;94857.78;;;13.10;97.00
9855;BME280;4966;48.112;9.282;2022-08-21T02:26:23;94857.59;;;13.03;96.66
9855;BME280;4966;48.112;9.282;2022-08-21T02:28:49;94850.84;;;12.84;96.92
9855;BME280;4966;48.112;9.282;2022-08-21T02:31:15;94845.97;;;12.77;97.22
9855;BME280;4966;48.112;9.282;2022-08-21T02:33:40;94843.50;;;12.72;97.89
9855;BME280;4966;48.112;9.282;2022-08-21T02:36:07;94846.47;;;12.67;98.41
9855;BME280;4966;48.112;9.282;2022-08-21T02:38:34;94846.56;;;12.71;97.36
9855;BME280;4966;48.112;9.282;2022-08-21T02:41:03;94856.75;;;12.58;98.06
9855;BME280;4966;48.112;9.282;2022-08-21T02:43:29;94849.78;;;12.61;97.95
9855;BME280;4966;48.112;9.282;2022-08-21T02:45:56;94844.66;;;12.71;96.85
9855;BME280;4966;48.112;9.282;2022-08-21T02:48:25;94843.09;;;12.58;97.15
9855;BME280;4966;48.112;9.282;2022-08-21T02:50:54;94842.78;;;12.47;97.84
9855;BME280;4966;48.112;9.282;2022-08-21T02:53:20;94843.94;;;12.46;97.54
9855;BME280;4966;48.112;9.282;2022-08-21T02:55:47;94833.56;;;12.52;98.29
9855;BME280;4966;48.112;9.282;2022-08-21T02:58:15;94839.81;;;12.52;98.23
9855;BME280;4966;48.112;9.282;2022-08-21T03:00:41;94838.03;;;12.72;97.70
9855;BME280;4966;48.112;9.282;2022-08-21T03:03:07;94836.66;;;12.79;97.09
9855;BME280;4966;48.112;9.282;2022-08-21T03:05:34;94831.28;;;12.82;96.69
9855;BME280;4966;48.112;9.282;2022-08-21T03:08:02;94844.69;;;12.87;96.12
9855;BME280;4966;48.112;9.282;2022-08-21T03:10:28;94834.91;;;12.86;95.77
9855;BME280;4966;48.112;9.282;2022-08-21T03:12:54;94839.72;;;12.77;96.31
9855;BME280;4966;48.112;9.282;2022-08-21T03:15:21;94838.13;;;12.76;96.63
9855;BME280;4966;48.112;9.282;2022-08-21T03:17:49;94842.78;;;12.75;96.44
9855;BME280;4966;48.112;9.282;2022-08-21T03:20:18;94841.88;;;12.84;95.70
9855;BME280;4966;48.112;9.282;2022-08-21T03:22:44;94841.22;;;12.74;94.84
9855;BME280;4966;48.112;9.282;2022-08-21T03:25:09;94843.34;;;12.53;95.13
9855;BME280;4966;48.112;9.282;2022-08-21T03:27:36;94839.94;;;12.44;96.01
9855;BME280;4966;48.112;9.282;2022-08-21T03:30:03;94854.97;;;12.38;96.08
9855;BME280;4966;48.112;9.282;2022-08-21T03:32:29;94855.13;;;12.29;96.48
9855;BME280;4966;48.112;9.282;2022-08-21T03:34:56;94853.06;;;12.26;96.58
9855;BME280;4966;48.112;9.282;2022-08-21T03:37:23;94857.16;;;12.32;96.77
9855;BME280;4966;48.112;9.282;2022-08-21T03:39:49;94854.09;;;12.33;96.63
9855;BME280;4966;48.112;9.282;2022-08-21T03:42:15;94856.84;;;12.21;96.87
9855;BME280;4966;48.112;9.282;2022-08-21T03:44:40;94857.06;;;12.16;96.92
9855;BME280;4966;48.112;9.282;2022-08-21T03:47:06;94853.34;;;11.96;97.81
9855;BME280;4966;48.112;9.282;2022-08-21T03:49:32;94856.28;;;12.03;97.42
9855;BME280;4966;48.112;9.282;2022-08-21T03:51:58;94852.06;;;12.18;97.11
9855;BME280;4966;48.112;9.282;2022-08-21T03:54:24;94861.25;;;12.13;97.06
9855;BME280;4966;48.112;9.282;2022-08-21T03:56:50;94861.75;;;12.03;97.09
9855;BME280;4966;48.112;9.282;2022-08-21T03:59:15;94851.06;;;11.98;96.77
9855;BME280;4966;48.112;9.282;2022-08-21T04:01:51;94857.31;;;11.99;96.60
9855;BME280;4966;48.112;9.282;2022-08-21T04:04:17;94856.25;;;12.16;96.16
9855;BME280;4966;48.112;9.282;2022-08-21T04:06:42;94871.38;;;12.13;95.89
9855;BME280;4966;48.112;9.282;2022-08-21T04:09:07;94864.91;;;12.05;96.22
9855;BME280;4966;48.112;9.282;2022-08-21T04:11:33;94866.06;;;12.04;96.02
9855;BME280;4966;48.112;9.282;2022-08-21T04:13:58;94868.78;;;12.17;94.43
9855;BME280;4966;48.112;9.282;2022-08-21T04:16:24;94864.69;;;12.10;94.39
9855;BME280;4966;48.112;9.282;2022-08-21T04:18:49;94863.56;;;11.87;95.70
9855;BME280;4966;48.112;9.282;2022-08-21T04:21:15;94859.56;;;11.72;96.57
9855;BME280;4966;48.112;9.282;2022-08-21T04:23:40;94874.22;;;11.80;96.47
9855;BME280;4966;48.112;9.282;2022-08-21T04:26:06;94868.44;;;11.81;96.49
9855;BME280;4966;48.112;9.282;2022-08-21T04:28:31;94872.41;;;11.84;96.38
9855;BME280;4966;48.112;9.282;2022-08-21T04:30:57;94874.66;;;11.82;96.34
9855;BME280;4966;48.112;9.282;2022-08-21T04:33:23;94874.66;;;11.82;95.74
9855;BME280;4966;48.112;9.282;2022-08-21T04:35:49;94863.91;;;11.98;95.51
9855;BME280;4966;48.112;9.282;2022-08-21T04:38:15;94870.47;;;12.09;94.24
9855;BME280;4966;48.112;9.282;2022-08-21T04:40:41;94873.56;;;12.07;94.59
9855;BME280;4966;48.112;9.282;2022-08-21T04:43:09;94878.78;;;12.00;95.32
9855;BME280;4966;48.112;9.282;2022-08-21T04:45:37;94874.25;;;12.04;95.71
9855;BME280;4966;48.112;9.282;2022-08-21T04:48:05;94885.13;;;12.17;95.65
9855;BME280;4966;48.112;9.282;2022-08-21T04:50:39;94877.47;;;12.34;95.48
9855;BME280;4966;48.112;9.282;2022-08-21T04:53:08;94881.78;;;12.48;94.99
9855;BME280;4966;48.112;9.282;2022-08-21T04:55:35;94887.47;;;12.55;94.76
9855;BME280;4966;48.112;9.282;2022-08-21T04:58:04;94884.97;;;12.50;94.92
9855;BME280;4966;48.112;9.282;2022-08-21T05:00:30;94895.84;;;12.62;93.52
9855;BME280;4966;48.112;9.282;2022-08-21T05:02:57;94895.28;;;12.56;94.35
9855;BME280;4966;48.112;9.282;2022-08-21T05:05:27;94893.25;;;12.53;94.28
9855;BME280;4966;48.112;9.282;2022-08-21T05:07:54;94890.84;;;12.52;94.36
9855;BME280;4966;48.112;9.282;2022-08-21T05:10:21;94892.34;;;12.49;95.28
9855;BME280;4966;48.112;9.282;2022-08-21T05:12:48;94883.44;;;12.65;91.90
9855;BME280;4966;48.112;9.282;2022-08-21T05:15:14;94891.31;;;12.54;92.09
9855;BME280;4966;48.112;9.282;2022-08-21T05:17:41;94896.44;;;12.55;92.15
9855;BME280;4966;48.112;9.282;2022-08-21T05:20:08;94892.16;;;12.70;91.03
9855;BME280;4966;48.112;9.282;2022-08-21T05:22:34;94892.09;;;12.54;91.82
9855;BME280;4966;48.112;9.282;2022-08-21T05:24:59;94896.97;;;12.61;92.82
9855;BME280;4966;48.112;9.282;2022-08-21T05:27:24;94902.88;;;12.63;93.48
9855;BME280;4966;48.112;9.282;2022-08-21T05:29:50;94905.72;;;12.67;91.99
9855;BME280;4966;48.112;9.282;2022-08-21T05:32:15;94901.22;;;12.87;92.96
9855;BME280;4966;48.112;9.282;2022-08-21T05:34:41;94907.53;;;13.03;93.58
9855;BME280;4966;48.112;9.282;2022-08-21T05:37:07;94912.34;;;13.22;93.56
9855;BME280;4966;48.112;9.282;2022-08-21T05:39:32;94904.31;;;13.42;92.91
9855;BME280;4966;48.112;9.282;2022-08-21T05:41:57;94908.09;;;13.37;91.76
9855;BME280;4966;48.112;9.282;2022-08-21T05:44:23;94902.34;;;13.42;91.80
9855;BME280;4966;48.112;9.282;2022-08-21T05:46:48;94896.47;;;13.56;91.78
9855;BME280;4966;48.112;9.282;2022-08-21T05:49:14;94901.41;;;13.66;91.71
9855;BME280;4966;48.112;9.282;2022-08-21T05:51:40;94893.66;;;13.68;92.23
9855;BME280;4966;48.112;9.282;2022-08-21T05:54:06;94898.78;;;13.86;92.59
9855;BME280;4966;48.112;9.282;2022-08-21T05:56:31;94897.09;;;13.97;89.74
9855;BME280;4966;48.112;9.282;2022-08-21T05:58:57;94890.28;;;14.07;89.72
9855;BME280;4966;48.112;9.282;2022-08-21T06:01:23;94894.75;;;14.31;89.73
9855;BME280;4966;48.112;9.282;2022-08-21T06:03:48;94893.84;;;14.42;90.39
9855;BME280;4966;48.112;9.282;2022-08-21T06:06:14;94893.28;;;14.53;89.65
9855;BME280;4966;48.112;9.282;2022-08-21T06:08:39;94887.81;;;14.53;89.92
9855;BME280;4966;48.112;9.282;2022-08-21T06:11:06;94895.91;;;14.65;91.23
9855;BME280;4966;48.112;9.282;2022-08-21T06:13:32;94889.50;;;14.57;91.06
9855;BME280;4966;48.112;9.282;2022-08-21T06:16:15;94895.13;;;14.64;91.99
9855;BME280;4966;48.112;9.282;2022-08-21T06:18:42;94893.22;;;14.84;91.47
9855;BME280;4966;48.112;9.282;2022-08-21T06:21:08;94894.84;;;14.89;92.06
9855;BME280;4966;48.112;9.282;2022-08-21T06:23:34;94894.28;;;14.80;92.03
9855;BME280;4966;48.112;9.282;2022-08-21T06:26:01;94893.75;;;15.13;92.39
9855;BME280;4966;48.112;9.282;2022-08-21T06:28:27;94892.13;;;15.28;91.34
9855;BME280;4966;48.112;9.282;2022-08-21T06:30:52;94893.59;;;15.45;91.17
9855;BME280;4966;48.112;9.282;2022-08-21T06:33:18;94888.25;;;15.52;90.82
9855;BME280;4966;48.112;9.282;2022-08-21T06:35:43;94886.59;;;15.47;88.48
9855;BME280;4966;48.112;9.282;2022-08-21T06:38:09;94887.19;;;15.37;88.59
9855;BME280;4966;48.112;9.282;2022-08-21T06:40:34;94889.63;;;15.42;88.20
9855;BME280;4966;48.112;9.282;2022-08-21T06:43:12;94881.03;;;15.44;87.72
9855;BME280;4966;48.112;9.282;2022-08-21T06:45:39;94884.44;;;15.80;86.59
9855;BME280;4966;48.112;9.282;2022-08-21T06:48:05;94890.53;;;15.92;85.59
9855;BME280;4966;48.112;9.282;2022-08-21T06:50:32;94880.72;;;15.91;87.75
9855;BME280;4966;48.112;9.282;2022-08-21T06:53:13;94876.94;;;16.26;86.00
9855;BME280;4966;48.112;9.282;2022-08-21T06:55:40;94883.34;;;16.34;85.13
9855;BME280;4966;48.112;9.282;2022-08-21T06:58:06;94879.59;;;16.46;84.51
9855;BME280;4966;48.112;9.282;2022-08-21T07:00:32;94889.66;;;16.65;84.49
9855;BME280;4966;48.112;9.282;2022-08-21T07:02:58;94879.69;;;16.79;84.16
9855;BME280;4966;48.112;9.282;2022-08-21T07:05:27;94879.75;;;16.87;84.32
9855;BME280;4966;48.112;9.282;2022-08-21T07:07:53;94886.75;;;16.80;84.68
9855;BME280;4966;48.112;9.282;2022-08-21T07:10:19;94884.47;;;16.86;82.99
9855;BME280;4966;48.112;9.282;2022-08-21T07:12:44;94880.84;;;16.78;85.99
9855;BME280;4966;48.112;9.282;2022-08-21T07:15:10;94886.25;;;16.75;85.23
9855;BME280;4966;48.112;9.282;2022-08-21T07:17:36;94883.47;;;17.01;82.72
9855;BME280;4966;48.112;9.282;2022-08-21T07:20:03;94880.78;;;17.05;84.13
9855;BME280;4966;48.112;9.282;2022-08-21T07:22:29;94869.44;;;17.44;82.11
9855;BME280;4966;48.112;9.282;2022-08-21T07:24:54;94872.09;;;17.37;83.07
9855;BME280;4966;48.112;9.282;2022-08-21T07:27:20;94875.06;;;17.58;80.83
9855;BME280;4966;48.112;9.282;2022-08-21T07:29:45;94877.84;;;17.62;81.29
9855;BME280;4966;48.112;9.282;2022-08-21T07:32:10;94879.84;;;17.65;82.83
9855;BME280;4966;48.112;9.282;2022-08-21T07:34:36;94882.03;;;17.86;79.62
9855;BME280;4966;48.112;9.282;2022-08-21T07:37:01;94875.13;;;18.03;78.48
9855;BME280;4966;48.112;9.282;2022-08-21T07:39:26;94874.41;;;18.13;78.77
9855;BME280;4966;48.112;9.282;2022-08-21T07:41:52;94873.25;;;17.73;79.14
9855;BME280;4966;48.112;9.282;2022-08-21T07:44:17;94869.22;;;18.04;78.24
9855;BME280;4966;48.112;9.282;2022-08-21T07:46:43;94870.41;;;18.03;76.73
9855;BME280;4966;48.112;9.282;2022-08-21T07:49:08;94868.22;;;18.27;76.72
9855;BME280;4966;48.112;9.282;2022-08-21T07:51:33;94869.16;;;18.53;79.16
9855;BME280;4966;48.112;9.282;2022-08-21T07:53:59;94869.94;;;18.53;79.77
9855;BME280;4966;48.112;9.282;2022-08-21T07:56:25;94872.28;;;18.47;80.02
9855;BME280;4966;48.112;9.282;2022-08-21T07:58:51;94866.41;;;18.53;77.05
9855;BME280;4966;48.112;9.282;2022-08-21T08:01:17;94865.13;;;19.02;76.51
9855;BME280;4966;48.112;9.282;2022-08-21T08:03:42;94867.94;;;19.16;83.19
9855;BME280;4966;48.112;9.282;2022-08-21T08:06:08;94858.53;;;19.39;81.18
9855;BME280;4966;48.112;9.282;2022-08-21T08:08:40;94874.34;;;19.60;80.24
9855;BME280;4966;48.112;9.282;2022-08-21T08:11:06;94868.88;;;19.70;77.35
9855;BME280;4966;48.112;9.282;2022-08-21T08:13:38;94857.84;;;19.77;76.73
9855;BME280;4966;48.112;9.282;2022-08-21T08:16:04;94862.97;;;19.75;76.57
9855;BME280;4966;48.112;9.282;2022-08-21T08:18:29;94868.91;;;20.06;77.70
9855;BME280;4966;48.112;9.282;2022-08-21T08:20:55;94864.97;;;20.07;74.82
9855;BME280;4966;48.112;9.282;2022-08-21T08:23:20;94857.47;;;20.18;74.79
9855;BME280;4966;48.112;9.282;2022-08-21T08:25:47;94857.47;;;20.40;73.62
9855;BME280;4966;48.112;9.282;2022-08-21T08:28:13;94855.88;;;20.28;71.60
9855;BME280;4966;48.112;9.282;2022-08-21T08:30:38;94845.19;;;20.48;71.09
9855;BME280;4966;48.112;9.282;2022-08-21T08:33:04;94849.94;;;20.48;66.91
9855;BME280;4966;48.112;9.282;2022-08-21T08:35:29;94841.66;;;20.58;64.23
9855;BME280;4966;48.112;9.282;2022-08-21T08:37:55;94846.75;;;20.67;64.96
9855;BME280;4966;48.112;9.282;2022-08-21T08:40:29;94850.31;;;20.71;62.03
9855;BME280;4966;48.112;9.282;2022-08-21T08:42:56;94842.06;;;20.28;63.51
9855;BME280;4966;48.112;9.282;2022-08-21T08:45:22;94838.00;;;20.87;64.14
9855;BME280;4966;48.112;9.282;2022-08-21T08:47:56;94845.88;;;20.92;59.65
9855;BME280;4966;48.112;9.282;2022-08-21T08:50:52;94846.69;;;20.96;64.24
9855;BME280;4966;48.112;9.282;2022-08-21T08:55:48;94837.63;;;20.88;61.75
9855;BME280;4966;48.112;9.282;2022-08-21T08:58:24;94846.19;;;21.15;63.77
9855;BME280;4966;48.112;9.282;2022-08-21T09:00:51;94839.84;;;21.18;59.16
9855;BME280;4966;48.112;9.282;2022-08-21T09:03:17;94833.84;;;21.34;63.15
9855;BME280;4966;48.112;9.282;2022-08-21T09:05:50;94833.72;;;21.63;59.81
9855;BME280;4966;48.112;9.282;2022-08-21T09:09:28;94823.31;;;21.78;58.32
9855;BME280;4966;48.112;9.282;2022-08-21T09:11:27;94829.31;;;21.69;52.95
9855;BME280;4966;48.112;9.282;2022-08-21T09:14:14;94833.00;;;22.04;53.71
9855;BME280;4966;48.112;9.282;2022-08-21T09:27:33;94821.03;;;22.18;52.32
9855;BME280;4966;48.112;9.282;2022-08-21T09:29:58;94817.47;;;22.21;51.94
9855;BME280;4966;48.112;9.282;2022-08-21T09:32:27;94812.81;;;22.52;53.41
9855;BME280;4966;48.112;9.282;2022-08-21T09:35:12;94809.94;;;22.18;50.10
9855;BME280;4966;48.112;9.282;2022-08-21T09:38:06;94815.34;;;22.36;51.14
9855;BME280;4966;48.112;9.282;2022-08-21T09:43:07;94811.63;;;22.53;49.81
9855;BME280;4966;48.112;9.282;2022-08-21T09:45:42;94813.41;;;22.70;50.43
9855;BME280;4966;48.112;9.282;2022-08-21T09:48:14;94814.81;;;22.86;51.65
9855;BME280;4966;48.112;9.282;2022-08-21T09:50:44;94811.75;;;22.77;50.04
9855;BME280;4966;48.112;9.282;2022-08-21T09:53:28;94811.34;;;23.12;51.90
9855;BME280;4966;48.112;9.282;2022-08-21T09:56:28;94806.63;;;23.09;49.27
9855;BME280;4966;48.112;9.282;2022-08-21T10:01:52;94792.66;;;23.47;49.52
9855;BME280;4966;48.112;9.282;2022-08-21T10:04:22;94793.00;;;23.49;46.17
9855;BME280;4966;48.112;9.282;2022-08-21T10:06:48;94777.47;;;23.25;49.65
9855;BME280;4966;48.112;9.282;2022-08-21T10:09:17;94781.94;;;23.46;48.92
9855;BME280;4966;48.112;9.282;2022-08-21T10:11:54;94784.31;;;23.47;47.93
9855;BME280;4966;48.112;9.282;2022-08-21T10:22:20;94786.34;;;23.16;47.06
9855;BME280;4966;48.112;9.282;2022-08-21T10:31:02;94783.09;;;24.26;42.65
9855;BME280;4966;48.112;9.282;2022-08-21T10:33:39;94777.91;;;24.05;44.01
9855;BME280;4966;48.112;9.282;2022-08-21T10:39:21;94783.44;;;24.05;39.87
9855;BME280;4966;48.112;9.282;2022-08-21T10:45:08;94782.97;;;24.57;43.66
9855;BME280;4966;48.112;9.282;2022-08-21T10:47:49;94783.53;;;24.68;42.59
9855;BME280;4966;48.112;9.282;2022-08-21T10:50:42;94777.13;;;24.91;38.71
9855;BME280;4966;48.112;9.282;2022-08-21T10:53:28;94772.13;;;24.82;39.48
9855;BME280;4966;48.112;9.282;2022-08-21T10:56:01;94774.50;;;24.17;42.34
9855;BME280;4966;48.112;9.282;2022-08-21T10:58:34;94765.78;;;24.62;41.30
9855;BME280;4966;48.112;9.282;2022-08-21T11:01:15;94776.25;;;24.54;41.48
9855;BME280;4966;48.112;9.282;2022-08-21T11:03:46;94763.00;;;24.62;38.82
9855;BME280;4966;48.112;9.282;2022-08-21T11:06:27;94764.97;;;25.01;42.26
9855;BME280;4966;48.112;9.282;2022-08-21T11:09:11;94761.75;;;24.63;40.06
9855;BME280;4966;48.112;9.282;2022-08-21T11:11:46;94757.78;;;25.24;39.20
9855;BME280;4966;48.112;9.282;2022-08-21T11:15:18;94745.81;;;25.43;38.48
9855;BME280;4966;48.112;9.282;2022-08-21T11:17:22;94745.19;;;25.52;42.66
9855;BME280;4966;48.112;9.282;2022-08-21T11:20:13;94747.63;;;25.34;39.42
9855;BME280;4966;48.112;9.282;2022-08-21T11:22:50;94752.41;;;25.33;38.38
9855;BME280;4966;48.112;9.282;2022-08-21T11:25:33;94746.78;;;25.70;36.88
9855;BME280;4966;48.112;9.282;2022-08-21T11:28:41;94747.78;;;28.75;32.42
9855;BME280;4966;48.112;9.282;2022-08-21T11:39:02;94734.50;;;36.50;18.71
9855;BME280;4966;48.112;9.282;2022-08-21T11:41:43;94732.94;;;34.70;19.16
9855;BME280;4966;48.112;9.282;2022-08-21T11:47:08;94729.50;;;36.77;19.80
9855;BME280;4966;48.112;9.282;2022-08-21T11:49:46;94719.56;;;37.21;18.03
9855;BME280;4966;48.112;9.282;2022-08-21T11:55:26;94709.03;;;39.75;16.92
9855;BME280;4966;48.112;9.282;2022-08-21T11:58:09;94712.75;;;36.79;18.86
9855;BME280;4966;48.112;9.282;2022-08-21T12:00:47;94708.78;;;37.98;17.11
9855;BME280;4966;48.112;9.282;2022-08-21T12:03:21;94702.00;;;39.82;15.85
9855;BME280;4966;48.112;9.282;2022-08-21T12:06:12;94698.72;;;39.31;17.08
9855;BME280;4966;48.112;9.282;2022-08-21T12:08:41;94694.25;;;39.83;17.05
9855;BME280;4966;48.112;9.282;2022-08-21T12:13:52;94698.75;;;37.69;17.42
9855;BME280;4966;48.112;9.282;2022-08-21T12:16:30;94701.31;;;38.12;17.35
9855;BME280;4966;48.112;9.282;2022-08-21T12:19:05;94686.44;;;39.11;16.65
9855;BME280;4966;48.112;9.282;2022-08-21T12:21:31;94701.28;;;38.99;16.75
9855;BME280;4966;48.112;9.282;2022-08-21T12:26:32;94700.50;;;39.70;14.45
9855;BME280;4966;48.112;9.282;2022-08-21T12:29:21;94694.00;;;38.34;15.88
9855;BME280;4966;48.112;9.282;2022-08-21T12:32:01;94683.28;;;39.21;16.01
9855;BME280;4966;48.112;9.282;2022-08-21T12:34:33;94688.28;;;40.35;14.89
9855;BME280;4966;48.112;9.282;2022-08-21T12:37:04;94690.53;;;41.05;13.98
9855;BME280;4966;48.112;9.282;2022-08-21T12:39:33;94689.38;;;40.51;12.95
9855;BME280;4966;48.112;9.282;2022-08-21T12:44:42;94691.75;;;37.98;15.00
9855;BME280;4966;48.112;9.282;2022-08-21T12:52:39;94673.13;;;40.46;13.12
9855;BME280;4966;48.112;9.282;2022-08-21T12:55:07;94671.84;;;39.62;13.99
9855;BME280;4966;48.112;9.282;2022-08-21T12:57:36;94669.06;;;41.36;11.90
9855;BME280;4966;48.112;9.282;2022-08-21T13:00:06;94665.88;;;40.45;13.79
9855;BME280;4966;48.112;9.282;2022-08-21T13:02:46;94666.00;;;40.96;13.85
9855;BME280;4966;48.112;9.282;2022-08-21T13:05:28;94654.72;;;39.98;14.82
9855;BME280;4966;48.112;9.282;2022-08-21T13:07:54;94660.50;;;41.36;13.26
9855;BME280;4966;48.112;9.282;2022-08-21T13:10:29;94661.00;;;40.15;15.12
9855;BME280;4966;48.112;9.282;2022-08-21T13:12:58;94661.50;;;40.63;12.74
9855;BME280;4966;48.112;9.282;2022-08-21T13:15:33;94654.59;;;40.96;11.91
9855;BME280;4966;48.112;9.282;2022-08-21T13:18:00;94661.47;;;41.07;11.70
9855;BME280;4966;48.112;9.282;2022-08-21T13:22:55;94657.47;;;39.79;13.17
9855;BME280;4966;48.112;9.282;2022-08-21T13:25:26;94657.88;;;40.19;11.10
9855;BME280;4966;48.112;9.282;2022-08-21T13:28:03;94657.31;;;42.31;11.30
9855;BME280;4966;48.112;9.282;2022-08-21T13:30:29;94659.66;;;42.46;10.55
9855;BME280;4966;48.112;9.282;2022-08-21T13:32:59;94653.50;;;43.03;9.54
9855;BME280;4966;48.112;9.282;2022-08-21T13:38:19;94644.84;;;44.71;9.08
9855;BME280;4966;48.112;9.282;2022-08-21T13:40:58;94646.38;;;39.75;12.64
9855;BME280;4966;48.112;9.282;2022-08-21T13:43:32;94644.06;;;39.74;12.15
9855;BME280;4966;48.112;9.282;2022-08-21T13:45:58;94635.81;;;39.70;11.11
9855;BME280;4966;48.112;9.282;2022-08-21T13:48:26;94639.16;;;40.24;13.88
9855;BME280;4966;48.112;9.282;2022-08-21T13:50:53;94648.91;;;40.77;12.20
9855;BME280;4966;48.112;9.282;2022-08-21T13:55:51;94639.72;;;42.67;11.93
9855;BME280;4966;48.112;9.282;2022-08-21T13:58:31;94635.59;;;39.32;12.18
9855;BME280;4966;48.112;9.282;2022-08-21T14:00:59;94634.03;;;41.55;12.93
9855;BME280;4966;48.112;9.282;2022-08-21T14:03:52;94635.75;;;42.70;11.96
9855;BME280;4966;48.112;9.282;2022-08-21T14:06:21;94629.44;;;44.24;10.41
9855;BME280;4966;48.112;9.282;2022-08-21T14:08:59;94633.66;;;45.63;9.79
9855;BME280;4966;48.112;9.282;2022-08-21T14:11:27;94634.22;;;46.00;8.50
9855;BME280;4966;48.112;9.282;2022-08-21T14:14:00;94633.34;;;46.68;7.56
9855;BME280;4966;48.112;9.282;2022-08-21T14:16:42;94633.50;;;47.26;8.90
9855;BME280;4966;48.112;9.282;2022-08-21T14:21:44;94626.94;;;44.49;10.47
9855;BME280;4966;48.112;9.282;2022-08-21T14:26:51;94622.28;;;45.19;10.84
9855;BME280;4966;48.112;9.282;2022-08-21T14:29:18;94620.50;;;44.64;11.00
9855;BME280;4966;48.112;9.282;2022-08-21T14:31:54;94612.03;;;45.62;10.11
9855;BME280;4966;48.112;9.282;2022-08-21T14:34:21;94607.00;;;46.16;9.76
9855;BME280;4966;48.112;9.282;2022-08-21T14:36:48;94614.06;;;46.38;9.30
9855;BME280;4966;48.112;9.282;2022-08-21T14:39:14;94601.81;;;44.78;10.53
9855;BME280;4966;48.112;9.282;2022-08-21T14:41:40;94611.41;;;45.71;9.92
9855;BME280;4966;48.112;9.282;2022-08-21T14:44:07;94598.19;;;45.76;8.50
9855;BME280;4966;48.112;9.282;2022-08-21T14:46:33;94608.16;;;46.13;9.73
9855;BME280;4966;48.112;9.282;2022-08-21T14:49:01;94603.19;;;45.60;10.04
9855;BME280;4966;48.112;9.282;2022-08-21T14:51:26;94609.50;;;46.04;9.61
9855;BME280;4966;48.112;9.282;2022-08-21T14:53:51;94593.94;;;44.71;9.92